Tabriz, Iran
Current Conditions -  °F | °C
As of 6:00 AM on Tuesday 25 Nov 2014 (Local Time) from OITT Reporting Station
Scattered Clouds Scattered Clouds  
Wind Chill: 30°   Ceiling: Unl
Heat Index: 39°   Visibility: 6mi
Dew Point: 30°   Wind: 16mph
Humidity: 70%   Direction: 90°E
Pressure: 30.09"   Gusts: NA
Location:  38.08°N, 46.3°E
Report Text: OITT 250200Z 09014KT 9999 FEW035 SCT090 04/M01 Q1019 A3010
Loading
Personal Weather Stations






























Interactive Weather Map New forecast layout! Learn more

10-Day Weather Forecast

Advertisements
Track Severe Weather on mobile